createdAt,value
2023-02-11T00:01:51.558Z,58.57
2023-02-11T00:04:20.580Z,58.37
2023-02-11T00:06:48.305Z,57.57
2023-02-11T00:09:15.902Z,60.43
2023-02-11T00:11:43.456Z,63.40
2023-02-11T00:14:11.490Z,62.77
2023-02-11T00:16:39.100Z,51.63
2023-02-11T00:19:07.327Z,57.60
2023-02-11T00:21:36.312Z,58.67
2023-02-11T00:24:03.887Z,62.70
2023-02-11T00:26:32.526Z,60.77
2023-02-11T00:29:00.902Z,81.63
2023-02-11T00:31:28.636Z,54.00
2023-02-11T00:33:56.355Z,53.60
2023-02-11T00:36:24.697Z,59.53
2023-02-11T00:38:54.655Z,50.17
2023-02-11T00:41:22.547Z,53.80
2023-02-11T00:43:50.584Z,55.40
2023-02-11T00:46:18.213Z,60.83
2023-02-11T00:48:45.776Z,62.60
2023-02-11T00:51:13.737Z,64.43
2023-02-11T00:53:41.375Z,59.20
2023-02-11T00:56:10.286Z,54.73
2023-02-11T00:58:38.235Z,58.37
2023-02-11T01:01:05.766Z,57.27
2023-02-11T01:03:33.476Z,62.47
2023-02-11T01:06:01.075Z,58.10
2023-02-11T01:08:28.785Z,60.57
2023-02-11T01:10:57.174Z,56.13
2023-02-11T01:13:26.782Z,50.40
2023-02-11T01:15:54.441Z,58.77
2023-02-11T01:18:22.084Z,54.10
2023-02-11T01:20:49.810Z,61.37
2023-02-11T01:23:17.293Z,56.97
2023-02-11T01:25:44.831Z,54.60
2023-02-11T01:28:16.873Z,58.80
2023-02-11T01:30:46.026Z,55.50
2023-02-11T01:33:13.858Z,61.47
2023-02-11T01:35:41.483Z,56.07
2023-02-11T01:38:09.375Z,60.23
2023-02-11T01:40:36.960Z,56.33
2023-02-11T01:43:04.555Z,52.73
2023-02-11T01:45:50.938Z,59.90
2023-02-11T01:48:21.881Z,64.27
2023-02-11T01:50:51.131Z,54.03
2023-02-11T01:53:36.507Z,57.93
2023-02-11T01:56:33.535Z,58.53
2023-02-11T01:59:04.172Z,54.40
2023-02-11T02:01:33.384Z,56.17
2023-02-11T02:04:03.779Z,57.97
2023-02-11T02:06:34.607Z,59.27
2023-02-11T02:09:04.626Z,54.40
2023-02-11T02:11:32.171Z,54.77
2023-02-11T02:14:00.194Z,51.07
2023-02-11T02:16:30.745Z,57.50
2023-02-11T02:19:07.619Z,58.87
2023-02-11T02:21:58.285Z,62.13
2023-02-11T02:24:39.374Z,53.37
2023-02-11T02:27:17.014Z,57.43
2023-02-11T02:30:08.305Z,57.17
2023-02-11T02:32:51.798Z,64.93
2023-02-11T02:35:25.789Z,59.53
2023-02-11T02:38:00.798Z,54.77
2023-02-11T02:40:32.556Z,62.70
2023-02-11T02:43:01.621Z,47.73
2023-02-11T02:45:29.151Z,53.50
2023-02-11T02:47:58.075Z,58.40
2023-02-11T02:50:30.218Z,56.40
2023-02-11T02:53:02.383Z,50.23
2023-02-11T02:55:37.790Z,53.17
2023-02-11T02:58:28.825Z,57.67
2023-02-11T03:01:00.240Z,49.70
2023-02-11T03:03:33.638Z,50.10
2023-02-11T03:06:04.634Z,53.63
2023-02-11T03:08:35.587Z,57.20
2023-02-11T03:11:04.285Z,52.80
2023-02-11T03:13:33.966Z,54.23
2023-02-11T03:16:04.284Z,54.30
2023-02-11T03:18:34.757Z,52.27
2023-02-11T03:21:03.642Z,47.07
2023-02-11T03:23:33.902Z,53.87
2023-02-11T03:26:04.109Z,55.57
2023-02-11T03:28:33.846Z,49.77
2023-02-11T03:31:07.307Z,52.80
2023-02-11T03:33:39.824Z,51.53
2023-02-11T03:36:09.915Z,58.23
2023-02-11T03:38:38.965Z,53.73
2023-02-11T03:41:08.980Z,55.83
2023-02-11T03:43:37.373Z,49.33
2023-02-11T03:46:05.686Z,50.50
2023-02-11T03:48:34.990Z,56.07
2023-02-11T03:51:06.476Z,56.30
2023-02-11T03:53:34.086Z,50.80
2023-02-11T03:56:03.699Z,52.07
2023-02-11T03:58:31.393Z,50.70
2023-02-11T04:00:59.106Z,53.20
2023-02-11T04:03:26.639Z,53.83
2023-02-11T04:05:54.158Z,52.27
2023-02-11T04:08:23.216Z,56.67
2023-02-11T04:10:50.813Z,53.20
2023-02-11T04:13:18.324Z,60.73
2023-02-11T04:15:48.497Z,51.33
2023-02-11T04:18:16.413Z,51.93
2023-02-11T04:20:44.119Z,54.17
2023-02-11T04:23:11.669Z,53.03
2023-02-11T04:25:40.528Z,49.40
2023-02-11T04:28:08.092Z,57.83
2023-02-11T04:30:35.596Z,55.80
2023-02-11T04:33:03.088Z,59.93
2023-02-11T04:35:30.798Z,55.47
2023-02-11T04:37:58.378Z,51.20
2023-02-11T04:40:25.946Z,47.33
2023-02-11T04:42:54.927Z,48.87
2023-02-11T04:45:22.476Z,51.07
2023-02-11T04:47:50.032Z,49.80
2023-02-11T04:50:17.963Z,52.63
2023-02-11T04:52:45.444Z,53.70
2023-02-11T04:55:12.950Z,49.80
2023-02-11T04:57:40.498Z,50.63
2023-02-11T05:00:12.825Z,51.63
2023-02-11T05:02:43.349Z,53.87
2023-02-11T05:05:14.405Z,47.53
2023-02-11T05:07:41.885Z,48.53
2023-02-11T05:10:09.700Z,49.57
2023-02-11T05:12:37.126Z,52.27
2023-02-11T05:15:04.814Z,48.90
2023-02-11T05:17:36.546Z,55.13
2023-02-11T05:20:06.756Z,48.87
2023-02-11T05:22:34.299Z,52.63
2023-02-11T05:25:01.863Z,48.53
2023-02-11T05:27:29.377Z,54.13
2023-02-11T05:29:57.278Z,52.90
2023-02-11T05:32:27.788Z,57.23
2023-02-11T05:34:56.735Z,54.40
2023-02-11T05:37:24.392Z,54.43
2023-02-11T05:39:55.123Z,48.97
2023-02-11T05:42:22.801Z,50.70
2023-02-11T05:44:50.806Z,50.07
2023-02-11T05:47:18.502Z,56.53
2023-02-11T05:49:46.176Z,48.73
2023-02-11T05:52:15.265Z,44.40
2023-02-11T05:54:44.367Z,54.40
2023-02-11T05:57:11.969Z,48.47
2023-02-11T05:59:39.646Z,47.13
2023-02-11T06:02:13.174Z,48.20
2023-02-11T06:04:41.700Z,50.70
2023-02-11T06:07:09.241Z,49.87
2023-02-11T06:09:38.238Z,43.60
2023-02-11T06:12:06.004Z,51.73
2023-02-11T06:14:33.817Z,52.13
2023-02-11T06:17:07.644Z,50.23
2023-02-11T06:19:35.243Z,53.20
2023-02-11T06:22:05.898Z,53.80
2023-02-11T06:24:58.673Z,65.30
2023-02-11T06:27:22.512Z,48.33
2023-02-11T06:29:54.871Z,54.60
2023-02-11T06:32:42.348Z,54.57
2023-02-11T06:35:11.937Z,53.07
2023-02-11T06:37:39.902Z,50.33
2023-02-11T06:40:10.729Z,53.33
2023-02-11T06:42:39.915Z,54.67
2023-02-11T06:45:09.124Z,65.83
2023-02-11T06:47:36.850Z,58.30
2023-02-11T06:50:04.597Z,51.20
2023-02-11T06:52:32.310Z,54.83
2023-02-11T06:54:59.976Z,51.03
2023-02-11T06:57:27.726Z,54.00
2023-02-11T06:59:56.669Z,56.33
2023-02-11T07:02:24.193Z,50.13
2023-02-11T07:04:51.720Z,55.60
2023-02-11T07:07:19.278Z,58.50
2023-02-11T07:09:46.771Z,50.57
2023-02-11T07:12:14.262Z,53.73
2023-02-11T07:14:41.764Z,57.50
2023-02-11T07:17:10.680Z,53.13
2023-02-11T07:19:38.206Z,62.67
2023-02-11T07:22:05.718Z,78.53
2023-02-11T07:24:33.758Z,61.83
2023-02-11T07:27:01.289Z,63.00
2023-02-11T07:29:28.833Z,60.87
2023-02-11T07:31:56.443Z,54.50
2023-02-11T07:34:25.615Z,57.43
2023-02-11T07:36:53.137Z,51.43
2023-02-11T07:39:21.922Z,56.43
2023-02-11T07:41:49.521Z,50.10
2023-02-11T07:44:17.078Z,51.47
2023-02-11T07:46:45.529Z,52.10
2023-02-11T07:49:13.190Z,54.20
2023-02-11T07:51:42.093Z,62.63
2023-02-11T07:54:11.097Z,49.60
2023-02-11T07:56:38.794Z,52.47
2023-02-11T07:59:06.389Z,52.43
2023-02-11T08:01:34.027Z,56.63
2023-02-11T08:04:02.806Z,61.03
2023-02-11T08:06:37.572Z,57.27
2023-02-11T08:09:07.917Z,47.63
2023-02-11T08:11:35.704Z,49.90
2023-02-11T08:14:03.528Z,51.57
2023-02-11T08:16:32.844Z,57.40
2023-02-11T08:19:01.967Z,55.13
2023-02-11T08:21:29.755Z,53.60
2023-02-11T08:23:58.024Z,60.07
2023-02-11T08:26:28.444Z,56.67
2023-02-11T08:28:56.565Z,55.17
2023-02-11T08:31:25.001Z,51.37
2023-02-11T08:33:54.337Z,52.47
2023-02-11T08:36:25.955Z,55.00
2023-02-11T08:39:12.160Z,53.87
2023-02-11T08:41:47.720Z,54.40
2023-02-11T08:44:17.429Z,49.13
2023-02-11T08:46:44.958Z,53.37
2023-02-11T08:49:12.870Z,54.80
2023-02-11T08:51:41.172Z,49.37
2023-02-11T08:54:09.944Z,56.67
2023-02-11T08:56:38.211Z,53.07
2023-02-11T08:59:07.813Z,57.40
2023-02-11T09:01:35.640Z,53.43
2023-02-11T09:04:03.721Z,55.10
2023-02-11T09:06:31.388Z,53.43
2023-02-11T09:08:59.614Z,52.30
2023-02-11T09:11:28.663Z,52.87
2023-02-11T09:13:56.342Z,58.07
2023-02-11T09:16:27.246Z,50.67
2023-02-11T09:18:55.213Z,54.87
2023-02-11T09:21:23.054Z,50.57
2023-02-11T09:23:50.766Z,53.50
2023-02-11T09:26:20.310Z,54.70
2023-02-11T09:28:48.533Z,55.97
2023-02-11T09:31:17.559Z,63.57
2023-02-11T09:33:48.820Z,53.87
2023-02-11T09:36:17.185Z,48.30
2023-02-11T09:38:45.006Z,44.03
2023-02-11T09:41:25.479Z,37.58
2023-02-11T09:43:54.583Z,36.92
2023-02-11T09:46:23.224Z,37.25
2023-02-11T09:48:54.558Z,33.58
2023-02-11T09:51:25.599Z,29.17
2023-02-11T09:54:00.098Z,25.33
2023-02-11T09:56:29.270Z,26.90
2023-02-11T09:58:56.822Z,32.97
2023-02-11T10:01:30.896Z,31.08
2023-02-11T10:04:06.046Z,31.40
2023-02-11T10:06:38.073Z,29.80
2023-02-11T10:09:13.123Z,26.45
2023-02-11T10:11:44.271Z,26.50
2023-02-11T10:14:21.975Z,28.27
2023-02-11T10:16:56.466Z,22.05
2023-02-11T10:19:34.217Z,23.60
2023-02-11T10:22:09.221Z,25.70
2023-02-11T10:24:37.240Z,19.77
2023-02-11T10:27:07.596Z,24.40
2023-02-11T10:29:38.180Z,20.85
2023-02-11T10:32:08.704Z,17.48
2023-02-11T10:34:39.401Z,19.23
2023-02-11T10:37:07.262Z,15.32
2023-02-11T10:39:34.763Z,17.58
2023-02-11T10:42:06.393Z,21.13
2023-02-11T10:44:35.453Z,20.10
2023-02-11T10:47:06.659Z,21.08
2023-02-11T10:49:35.640Z,15.90
2023-02-11T10:52:15.598Z,22.48
2023-02-11T10:54:43.614Z,18.55
2023-02-11T10:57:18.542Z,16.25
2023-02-11T10:59:46.230Z,29.25
2023-02-11T11:02:22.733Z,16.85
2023-02-11T11:04:50.509Z,14.55
2023-02-11T11:07:22.475Z,16.27
2023-02-11T11:09:52.010Z,16.17
2023-02-11T11:12:25.815Z,20.00
2023-02-11T11:14:55.633Z,17.08
2023-02-11T11:17:23.199Z,17.58
2023-02-11T11:19:50.817Z,15.43
2023-02-11T11:22:24.035Z,14.35
2023-02-11T11:24:54.586Z,14.90
2023-02-11T11:27:24.880Z,14.48
2023-02-11T11:29:54.039Z,17.48
2023-02-11T11:32:23.147Z,15.65
2023-02-11T11:34:51.548Z,16.35
2023-02-11T11:37:24.714Z,13.32
2023-02-11T11:40:03.482Z,12.05
2023-02-11T11:42:32.165Z,15.85
2023-02-11T11:45:00.561Z,13.75
2023-02-11T11:47:30.785Z,14.52
2023-02-11T11:50:10.247Z,11.55
2023-02-11T11:52:42.583Z,16.88
2023-02-11T11:55:14.438Z,12.73
2023-02-11T11:57:42.429Z,13.48
2023-02-11T12:00:17.337Z,12.25
2023-02-11T12:03:06.087Z,13.63
2023-02-11T12:05:37.687Z,16.05
2023-02-11T12:08:12.055Z,14.00
2023-02-11T12:10:52.132Z,14.07
2023-02-11T12:13:45.264Z,12.20
2023-02-11T12:16:19.150Z,12.13
2023-02-11T12:18:54.344Z,13.82
2023-02-11T12:21:30.791Z,13.40
2023-02-11T12:24:17.325Z,12.50
2023-02-11T12:26:47.068Z,11.98
2023-02-11T12:29:24.266Z,48.28
2023-02-11T12:32:17.121Z,12.05
2023-02-11T12:34:54.765Z,14.40
2023-02-11T12:37:29.737Z,11.48
2023-02-11T12:40:03.924Z,12.90
2023-02-11T12:42:57.131Z,13.23
2023-02-11T12:45:33.681Z,16.25
2023-02-11T12:48:11.354Z,16.10
2023-02-11T12:50:42.390Z,17.25
2023-02-11T12:53:19.247Z,17.92
2023-02-11T12:55:50.210Z,18.55
2023-02-11T12:58:20.201Z,14.02
2023-02-11T13:00:52.097Z,19.00
2023-02-11T13:03:23.601Z,18.15
2023-02-11T13:05:53.781Z,21.33
2023-02-11T13:08:24.948Z,17.27
2023-02-11T13:10:58.139Z,20.48
2023-02-11T13:13:28.141Z,20.67
2023-02-11T13:15:58.383Z,20.23
2023-02-11T13:18:31.842Z,20.83
2023-02-11T13:21:04.646Z,17.88
2023-02-11T13:23:35.901Z,18.95
2023-02-11T13:26:08.611Z,24.48
2023-02-11T13:28:43.792Z,21.40
2023-02-11T13:31:14.212Z,18.75
2023-02-11T13:33:44.347Z,21.80
2023-02-11T13:36:14.524Z,18.38
2023-02-11T13:38:42.497Z,21.40
2023-02-11T13:41:19.462Z,20.40
2023-02-11T13:43:58.263Z,21.88
2023-02-11T13:46:26.684Z,20.75
2023-02-11T13:48:55.270Z,21.65
2023-02-11T13:51:35.851Z,17.70
2023-02-11T13:54:04.227Z,19.35
2023-02-11T13:56:34.620Z,23.30
2023-02-11T13:59:05.957Z,25.85
2023-02-11T14:01:40.561Z,24.60
2023-02-11T14:04:40.192Z,24.02
2023-02-11T14:07:46.562Z,18.10
2023-02-11T14:10:32.648Z,22.23
2023-02-11T14:13:23.170Z,18.83
2023-02-11T14:16:04.308Z,21.27
2023-02-11T14:18:41.221Z,24.13
2023-02-11T14:21:13.459Z,18.05
2023-02-11T14:23:41.708Z,25.17
2023-02-11T14:26:26.720Z,21.63
2023-02-11T14:29:01.645Z,18.77
2023-02-11T14:31:35.123Z,22.85
2023-02-11T14:34:23.525Z,19.95
2023-02-11T14:36:57.317Z,19.23
2023-02-11T14:39:34.778Z,29.48
2023-02-11T14:42:06.568Z,23.73
2023-02-11T14:44:36.412Z,26.15
2023-02-11T14:47:04.187Z,19.13
2023-02-11T14:49:33.969Z,24.00
2023-02-11T14:52:05.504Z,23.38
2023-02-11T14:54:33.504Z,20.02
2023-02-11T14:57:07.583Z,24.52
2023-02-11T14:59:39.029Z,22.08
2023-02-11T15:02:21.224Z,23.50
2023-02-11T15:04:51.915Z,19.38
2023-02-11T15:07:19.530Z,22.52
2023-02-11T15:09:48.479Z,22.42
2023-02-11T15:12:18.660Z,20.17
2023-02-11T15:14:50.903Z,25.85
2023-02-11T15:17:22.968Z,23.67
2023-02-11T15:19:53.530Z,21.13
2023-02-11T15:25:10.986Z,22.58
2023-02-11T15:27:40.025Z,22.30
2023-02-11T15:30:24.919Z,20.52
2023-02-11T15:32:57.980Z,22.83
2023-02-11T15:35:28.476Z,18.83
2023-02-11T15:37:58.026Z,19.48
2023-02-11T15:40:27.774Z,17.27
2023-02-11T15:42:59.035Z,21.45
2023-02-11T15:45:30.375Z,19.90
2023-02-11T15:48:00.181Z,23.13
2023-02-11T15:50:28.721Z,22.42
2023-02-11T15:52:57.148Z,23.10
2023-02-11T15:55:25.420Z,23.40
2023-02-11T15:57:54.934Z,23.20
2023-02-11T16:00:25.247Z,20.30
2023-02-11T16:02:54.371Z,21.00
2023-02-11T16:05:30.142Z,23.02
2023-02-11T16:07:58.202Z,21.20
2023-02-11T16:10:27.258Z,24.73
2023-02-11T16:12:55.986Z,25.67
2023-02-11T16:15:30.823Z,25.25
2023-02-11T16:17:59.967Z,22.65
2023-02-11T16:20:28.323Z,28.17
2023-02-11T16:22:56.031Z,25.65
2023-02-11T16:25:24.759Z,27.38
2023-02-11T16:27:53.118Z,30.42
2023-02-11T16:30:34.620Z,25.35
2023-02-11T16:33:04.235Z,31.33
2023-02-11T16:35:34.113Z,29.50
2023-02-11T16:38:02.337Z,26.15
2023-02-11T16:40:29.984Z,29.92
2023-02-11T16:42:57.555Z,26.88
2023-02-11T16:45:25.186Z,33.42
2023-02-11T16:47:59.957Z,32.10
2023-02-11T16:50:30.093Z,29.17
2023-02-11T16:53:01.694Z,27.08
2023-02-11T16:55:32.713Z,32.30
2023-02-11T16:58:13.948Z,32.25
2023-02-11T17:00:43.524Z,27.42
2023-02-11T17:03:16.144Z,30.90
2023-02-11T17:05:55.412Z,34.25
2023-02-11T17:08:23.856Z,33.45
2023-02-11T17:10:54.232Z,25.38
2023-02-11T17:13:22.405Z,33.33
2023-02-11T17:15:55.909Z,32.72
2023-02-11T17:18:23.749Z,31.42
2023-02-11T17:20:56.143Z,35.55
2023-02-11T17:23:24.044Z,34.85
2023-02-11T17:25:56.195Z,46.13
2023-02-11T17:28:23.947Z,40.58
2023-02-11T17:30:52.413Z,38.42
2023-02-11T17:33:20.392Z,41.25
2023-02-11T17:35:48.029Z,33.78
2023-02-11T17:38:17.201Z,31.10
2023-02-11T17:40:44.880Z,35.95
2023-02-11T17:43:12.457Z,41.95
2023-02-11T17:45:42.375Z,43.85
2023-02-11T17:48:10.037Z,39.65
2023-02-11T17:50:37.639Z,35.13
2023-02-11T17:53:05.443Z,40.28
2023-02-11T17:55:35.233Z,35.90
2023-02-11T17:58:03.841Z,38.15
2023-02-11T18:00:31.510Z,36.17
2023-02-11T18:03:02.960Z,35.80
2023-02-11T18:05:34.544Z,34.05
2023-02-11T18:08:02.164Z,41.70
2023-02-11T18:10:29.700Z,39.83
2023-02-11T18:12:58.646Z,38.58
2023-02-11T18:15:30.065Z,40.88
2023-02-11T18:18:02.636Z,34.45
2023-02-11T18:20:39.682Z,28.92
2023-02-11T18:23:07.735Z,32.92
2023-02-11T18:25:37.804Z,33.70
2023-02-11T18:28:13.435Z,32.13
2023-02-11T18:30:44.141Z,34.50
2023-02-11T18:33:14.501Z,34.97
2023-02-11T18:35:45.953Z,38.13
2023-02-11T18:38:16.659Z,35.42
2023-02-11T18:40:47.460Z,39.55
2023-02-11T18:43:16.706Z,39.60
2023-02-11T18:45:44.627Z,27.48
2023-02-11T18:48:14.525Z,33.85
2023-02-11T18:50:42.623Z,25.42
2023-02-11T18:53:15.702Z,30.13
2023-02-11T18:55:43.964Z,26.67
2023-02-11T18:58:11.687Z,25.42
2023-02-11T19:00:41.813Z,29.25
2023-02-11T19:03:09.465Z,24.38
2023-02-11T19:05:41.744Z,30.35
2023-02-11T19:08:09.272Z,31.50
2023-02-11T19:10:40.090Z,28.42
2023-02-11T19:13:08.605Z,34.13
2023-02-11T19:15:36.324Z,35.63
2023-02-11T19:18:05.582Z,23.35
2023-02-11T19:20:35.760Z,28.73
2023-02-11T19:23:03.403Z,30.60
2023-02-11T19:25:31.007Z,30.67
2023-02-11T19:27:58.712Z,33.83
2023-02-11T19:30:26.351Z,31.75
2023-02-11T19:32:57.065Z,39.25
2023-02-11T19:35:26.299Z,33.08
2023-02-11T19:37:53.870Z,35.08
2023-02-11T19:40:22.173Z,33.65
2023-02-11T19:42:49.829Z,33.55
2023-02-11T19:45:19.802Z,32.70
2023-02-11T19:47:47.358Z,37.38
2023-02-11T19:50:14.961Z,34.83
2023-02-11T19:52:44.236Z,38.90
2023-02-11T19:55:11.951Z,37.47
2023-02-11T19:57:39.615Z,36.97
2023-02-11T20:00:07.846Z,35.85
2023-02-11T20:02:35.867Z,35.55
2023-02-11T20:05:04.929Z,37.15
2023-02-11T20:07:34.405Z,41.00
2023-02-11T20:10:03.408Z,38.03
2023-02-11T20:12:31.064Z,36.42
2023-02-11T20:14:58.634Z,45.65
2023-02-11T20:17:26.175Z,34.03
2023-02-11T20:19:53.866Z,40.05
2023-02-11T20:22:21.442Z,33.53
2023-02-11T20:24:49.042Z,36.33
2023-02-11T20:27:20.495Z,40.75
2023-02-11T20:29:51.393Z,33.42
2023-02-11T20:32:19.007Z,42.22
2023-02-11T20:34:53.448Z,28.90
2023-02-11T20:37:21.116Z,32.15
2023-02-11T20:39:48.739Z,29.25
2023-02-11T20:42:18.176Z,30.42
2023-02-11T20:44:45.709Z,30.55
2023-02-11T20:47:13.519Z,34.47
2023-02-11T20:49:41.198Z,34.00
2023-02-11T20:52:09.165Z,38.10
2023-02-11T20:54:36.836Z,33.08
2023-02-11T20:57:04.657Z,32.85
2023-02-11T20:59:33.743Z,39.95
2023-02-11T21:02:03.987Z,42.85
2023-02-11T21:04:32.662Z,39.42
2023-02-11T21:07:01.526Z,40.05
2023-02-11T21:09:30.072Z,43.67
2023-02-11T21:11:57.950Z,47.55
2023-02-11T21:14:26.526Z,43.20
2023-02-11T21:16:55.736Z,47.45
2023-02-11T21:19:23.754Z,53.15
2023-02-11T21:21:51.415Z,46.83
2023-02-11T21:24:19.205Z,44.03
2023-02-11T21:26:50.156Z,55.10
2023-02-11T21:29:17.691Z,53.22
2023-02-11T21:31:47.205Z,51.65
2023-02-11T21:34:16.877Z,48.83
2023-02-11T21:36:45.201Z,41.20
2023-02-11T21:39:13.591Z,46.65
2023-02-11T21:41:41.165Z,46.33
2023-02-11T21:44:09.098Z,43.75
2023-02-11T21:46:37.468Z,45.20
2023-02-11T21:49:05.043Z,54.97
2023-02-11T21:51:33.903Z,68.45
2023-02-11T21:54:02.389Z,54.72
2023-02-11T21:56:33.868Z,53.03
2023-02-11T21:59:01.476Z,43.83
2023-02-11T22:01:32.598Z,49.58
2023-02-11T22:04:00.250Z,47.72
2023-02-11T22:06:31.168Z,43.50
2023-02-11T22:09:02.465Z,48.25
2023-02-11T22:11:30.041Z,52.50
2023-02-11T22:13:57.992Z,54.33
2023-02-11T22:16:26.717Z,57.22
2023-02-11T22:18:54.895Z,60.95
2023-02-11T22:21:23.479Z,60.78
2023-02-11T22:23:51.590Z,60.13
2023-02-11T22:26:21.301Z,48.55
2023-02-11T22:28:48.981Z,62.30
2023-02-11T22:31:17.585Z,51.10
2023-02-11T22:33:45.779Z,44.70
2023-02-11T22:36:16.094Z,39.67
2023-02-11T22:38:44.460Z,40.55
2023-02-11T22:41:12.390Z,44.95
2023-02-11T22:43:42.555Z,39.73
2023-02-11T22:46:12.002Z,41.30
2023-02-11T22:48:39.632Z,49.88
2023-02-11T22:51:07.805Z,40.28
2023-02-11T22:53:35.457Z,38.83
2023-02-11T22:56:04.203Z,39.40
2023-02-11T22:58:31.766Z,46.58
2023-02-11T23:01:00.751Z,60.17
2023-02-11T23:03:28.821Z,66.03
2023-02-11T23:05:58.267Z,61.40
2023-02-11T23:08:26.234Z,56.03
2023-02-11T23:10:53.769Z,58.35
2023-02-11T23:13:21.401Z,48.28
2023-02-11T23:15:49.103Z,55.58
2023-02-11T23:18:18.124Z,59.88
2023-02-11T23:20:45.942Z,76.53
2023-02-11T23:23:13.539Z,54.00
2023-02-11T23:25:44.300Z,66.68
2023-02-11T23:28:12.068Z,56.38
2023-02-11T23:30:41.296Z,54.53
2023-02-11T23:33:08.773Z,45.92
2023-02-11T23:35:37.937Z,51.05
2023-02-11T23:38:05.950Z,44.60
2023-02-11T23:40:33.520Z,40.97
2023-02-11T23:43:01.023Z,49.73
2023-02-11T23:45:28.576Z,42.88
2023-02-11T23:47:56.089Z,43.67
2023-02-11T23:50:23.688Z,42.20
2023-02-11T23:52:52.659Z,37.08
2023-02-11T23:55:20.262Z,44.90
2023-02-11T23:57:47.917Z,43.08
